Terminal Aerodrome Forecast
Issued by NWS

Home | Current Version | Previous Version | Graphics & Text | Print | Product List | Glossary On
Versions: 1 2 3 4 5 6 7 8 9 10 11 12 13 14 15 16 17 18 19 20
000
FTUS43 KTOP 161100
TAFMHK
TAF
KMHK 161132Z 1612/1712 33010G18KT P6SM BKN025
     FM161700 33010KT P6SM SCT025
     FM162300 36004KT P6SM SCT030 SCT200=

USA.gov is the U.S. government's official web portal to all federal, state and local government web resources and services.